航空気象通報

ウインドサーファーのための航空気象通報による風予報です。

9/30-10/2の航空気象通報

2017年09月30日 22時30分35秒 | TAF
羽田空港
TAF RJTT 301105Z 3012/0118 10008KT 9999 FEW030
BECMG 3012/3014 36008KT
BECMG 0100/0103 07006KT
BECMG 0106/0109 14013KT
日本時間30日21時:100度から8ノットの風
21-23時:風が変化
23時-1日09時:360度から8ノットの風
09-12時:風が変化
12-15時:070度から6ノットの風
15-18時:風が変化
18時-2日03時:140度から13ノットの風


静岡空港
TAF RJNS 301105Z 3012/0118 33005KT 9999 FEW025
BECMG 3021/3023 14008KT
BECMG 0112/0115 02005KT
日本時間30日21時-1日06時:330度から5ノットの風
06-08時:風が変化
08-21時:140度から8ノットの風
21-24時:風が変化
2日00-03時:020度から5ノットの風


福岡空港
TAF RJFF 301105Z 3012/0118 15005KT CAVOK
BECMG 0103/0106 31008KT
BECMG 0109/0112 15009KT
日本時間30日21時-1日12時:150度から5ノットの風
09-15時:風が変化
15-18時:310度から8ノットの風
18-21時:風が変化
21時-2日03時:150度から9ノットの風


那覇空港
TAF ROAH 301111Z 3012/0118 08008KT 9999 FEW030
BECMG 0100/0103 10010KT
BECMG 0109/0112 08005KT
日本時間30日21時-1日09時:080度から8ノットの風
09-12時:風が変化
12-18時:100度から10ノットの風
18-21時:風が変化
21時-2日03時:080度から5ノットの風


石垣空港
TAF ROIG 221109Z 2212/2318 07003KT 9999 FEW015 SCT020
BECMG 2221/2223 16006KT
BECMG 2306/2309 10007KT
日本時間22日21時-23日06時:070度から3ノットの風
06-08時:風が変化
08-15時:160度から6ノットの風
15-18時:風が変化
18時-24日03時:100度から7ノットの風


マウイのカフルイ空港
PHOG 301139Z 3012/0112 07008KT P6SM FEW030 SCT050
FM302000 03010KT P6SM FEW030 SCT050
FM010500 06008KT P6SM FEW050 AMD LTD TO VIS AND WIND TIL 301600
ハワイ時間30日02-10時:070度から8ノットの風
10-19時:030度から10ノットの風
19時-1日02時:060度から8ノットの風


サイパン空港
TAF PGSN 301138Z 3012/0112 10007KT P6SM VCSH SCT020 SCT050 BKN100
マリアナ時間30日22時-1日22時:100度から7ノットの風

コメント

9/28-9/30の航空気象通報

2017年09月28日 23時01分37秒 | TAF
羽田空港
TAF RJTT 281105Z 2812/2918 07015KT 9999 FEW020 SCT050
BECMG 2813/2815 04012KT
BECMG 2822/2900 08005KT
BECMG 2900/2903 18014KT
BECMG 2912/2915 35010KT
日本時間28日21-22時:070度から15ノットの風
22-24時:風が変化
29日00-07時:040度から12ノットの風
07-09時:風が変化
09時:080度から5ノットの風
09-12時:風が変化
12-21時:180度から14ノットの風
21-24時:風が変化
30日00-03時:350度から10ノットの風


静岡空港
TAF RJNS 281105Z 2812/2918 06007KT 9999 FEW010 BKN025
BECMG 2814/2816 33004KT
BECMG 2900/2903 24012KT
日本時間28日21-23時:060度から7ノットの風
23時-29日01時:風が変化
01-09時:330度から4ノットの風
09-12時:風が変化
12時-30日03時:240度から12ノットの風


福岡空港
TAF RJFF 281105Z 2812/2918 15006KT 9999 FEW010 SCT020 BKN030
BECMG 2817/2819 33007KT
BECMG 2912/2915 14004KT
日本時間28日21時-29日02時:150度から6ノットの風
02-04時:風が変化
04-21時:330度から7ノットの風
21-24時:風が変化
30日00-03時:140度から4ノットの風


那覇空港
TAF ROAH 281105Z 2812/2918 01010KT 9999 FEW020
日本時間28日21時-30日03時:010度から10ノットの風


石垣空港
TAF ROIG 281108Z 2812/2918 04012KT 9999 FEW015
日本時間28日21時-30日03時:040度から12ノットの風


マウイのカフルイ空港
PHOG 281139Z 2812/2912 05009KT P6SM FEW030 SCT050
FM282000 05020G28KT P6SM FEW030 SCT060
FM290500 05012G20KT P6SM FEW030 SCT050 AMD LTD TO VIS AND WIND TIL 281600
ハワイ時間28日02-10時:050度から9ノットの風
10-19時:050度から20ノット、突風28ノット
19時-29日02時:050度から12ノット、突風20ノット


サイパン空港
TAF PGSN 281120Z 2812/2912 09011KT P6SM VCSH FEW020 SCT050
マリアナ時間28日22時-30日22時:090度から11ノットの風
コメント

9/27-9/29の航空気象通報

2017年09月28日 00時51分58秒 | TAF
羽田空港
TAF RJTT 271109Z 2712/2818 14012KT 8000 -SHRA FEW008 BKN020
TEMPO 2715/2720 3000 SHRA BR FEW005 BKN008
BECMG 2719/2721 19026KT
TEMPO 2720/2800 19030G40KT 2000 TSRA BR FEW003 BKN005 FEW015CB
TEMPO 2800/2803 4000 -SHRA BR FEW005 BKN008
BECMG 2803/2806 02014KT
日本時間27日21時-28日04時:140度から12ノットの風
04-06時:風が変化
06-12時:190度から26ノットの風
12-15時:風が変化
15時-29日03時:020度から14ノットの風


静岡空港
TAF RJNS 271107Z 2712/2818 23006KT 9999 FEW015 BKN050
BECMG 2713/2715 3000 SHRA BR FEW005 BKN008
TEMPO 2716/2719 1500 +TSRA BR FEW002 BKN003 FEW015CB
BECMG 2800/2803 25016KT 9999 NSW FEW025
BECMG 2809/2812 33004KT
日本時間27日21時-28日09時:230度から6ノットの風
09-12時:風が変化
12-18時:250度から16ノットの風
18-21時:風が変化
21時-29日03時:330度から4ノットの風
、27日22-24時の後
28日09-12時の後
但し、28日01-04時の間:時々

福岡空港
TAF RJFF 271107Z 2712/2818 34010KT 8000 -SHRA FEW006 SCT010 BKN020
TEMPO 2712/2715 3000 SHRA BR FEW005 BKN008 BKN015
TEMPO 2715/2721 4000 -SHRA BR FEW005 BKN008 BKN015
BECMG 2809/2812 15005KT
日本時間27日21時-28日18時:340度から10ノットの風
18-21時:風が変化
21時-29日03時:150度から5ノットの風


那覇空港
TAF ROAH 271105Z 2712/2818 28009KT 9999 FEW015 BKN030
TEMPO 2720/2723 SHRA FEW010 BKN020 FEW025CB
BECMG 2803/2806 01012KT
日本時間27日21時-28日12時:280度から9ノットの風
12-15時:風が変化
15時-29日03時:010度から12ノットの風


石垣空港
TAF ROIG 271107Z 2712/2818 28005KT 9999 FEW015 SCT025
BECMG 2800/2803 01008KT
日本時間27日21時-28日09時:280度から5ノットの風
09-12時:風が変化
12時-29日03時:010度から8ノットの風


マウイのカフルイ空港
PHOG 271123Z 2712/2812 03011KT P6SM FEW030 SCT060
FM272200 04018G25KT P6SM FEW030 SCT060
FM280500 05009KT P6SM FEW030 SCT050 AMD LTD TO VIS AND WIND TIL 271600
ハワイ時間27日02-12時:030度から11ノットの風
12-19時:040度から18ノット、突風25ノット
19時-28日02時:050度から9ノットの風


サイパン空港
TAF PGSN 271126Z 2712/2812 23006KT P6SM VCSH SCT020 SCT130
マリアナ時間27日22時-28日22時:230度から6ノットの風
コメント

9/25-9/27の航空気象通報

2017年09月25日 21時59分18秒 | TAF
羽田空港
TAF RJTT 251105Z 2512/2618 18010KT 9999 FEW030 SCT040
  BECMG 2517/2519 36004KT
  BECMG 2600/2603 18014KT
日本時間25日21時-26日02時:180度から10ノットの風
02-04時:風が変化
04-09時:360度から4ノットの風
09-12時:風が変化
12時-27日03時:180度から14ノットの風


静岡空港
TAF RJNS 251105Z 2512/2618 31005KT 9999 FEW008 BKN012
  BECMG 2522/2600 18010KT
  BECMG 2609/2612 31005KT
日本時間25日21時-26日07時:310度から5ノットの風
07-09時:風が変化
09-18時:180度から10ノットの風
18-21時:風が変化
21時-27日03時:310度から5ノットの風


福岡空港
TAF RJFF 251109Z 2512/2618 14005KT 9999 FEW040
  BECMG 2603/2606 33006KT
  BECMG 2609/2612 15009KT
日本時間25日21時-26日12時:140度から5ノットの風
12-15時:風が変化
15-18時:330度から6ノットの風
18-21時:風が変化
21時-27日03時:150度から9ノットの風


那覇空港
TAF ROAH 251105Z 2512/2618 23008KT 9999 FEW010
  BECMG 2603/2606 28006KT
日本時間25日21時-26日12時:230度から8ノットの風
12-15時:風が変化
15時-27日03時:280度から6ノットの風


石垣空港
TAF ROIG 251107Z 2512/2618 18003KT 9999 SCT020
日本時間25日21時-27日03時:180度から3ノットの風


マウイのカフルイ空港
PHOG 251120Z 2512/2612 03005KT P6SM SKC
  FM252000 03014KT P6SM FEW030 FEW050
  FM260500 03007KT P6SM FEW025 SCT050 AMD LTD TO VIS AND WIND TIL 251600
ハワイ時間25日02-10時:030度から5ノットの風
10-19時:030度から14ノットの風
19時-26日02時:030度から7ノットの風


サイパン空港
TAF PGSN 251127Z 2512/2612 11010KT P6SM VCSH SCT023 SCT110
マリアナ時間25日22時-26日22時:110度から10ノットの風
コメント

9/24-9/26の航空気象通報

2017年09月24日 23時53分55秒 | TAF
羽田空港
TAF RJTT 241105Z 2412/2518 12006KT 9999 FEW020 SCT030
BECMG 2419/2421 36006KT
BECMG 2500/2503 10005KT
BECMG 2503/2506 18010KT
BECMG 2512/2515 08016KT
TEMPO 2512/2515 3000 SHRA BR FEW006 BKN008
日本時間24日21時-25日04時:120度から6ノットの風
04-06時:風が変化
06-09時:360度から6ノットの風
09-12時:風が変化
12時:100度から5ノットの風
12-15時:風が変化
15-21時:180度から10ノットの風
21-24時:風が変化
26日00-03時:080度から16ノットの風

但し、25日21-24時の間:時々

静岡空港
TAF RJNS 241112Z 2412/2518 34004KT 9999 FEW006 BKN012
TEMPO 2412/2421 FEW005 BKN008
BECMG 2500/2503 14010KT
BECMG 2509/2512 30004KT
日本時間24日21時-25日09時:340度から4ノットの風
09-12時:風が変化
12-18時:140度から10ノットの風
18-21時:風が変化
21時-26日03時:300度から4ノットの風

但し、24日12-15時の間:時々

福岡空港
TAF RJFF 241107Z 2412/2518 14005KT 9999 FEW025
BECMG 2500/2503 33008KT
BECMG 2509/2512 15006KT
日本時間24日21時-25日09時:140度から5ノットの風
09-12時:風が変化
12-18時:330度から8ノットの風
18-21時:風が変化
21時-26日03時:150度から6ノットの風


那覇空港
TAF ROAH 241107Z 2412/2518 26005KT 9999 FEW015 SCT030
TEMPO 2413/2417 4000 SHRA FEW010 BKN015 FEW020CB
BECMG 2500/2503 30008KT
BECMG 2512/2515 25005KT
日本時間24日21時-25日09時:260度から5ノットの風
09-12時:風が変化
12-21時:300度から8ノットの風
21-24時:風が変化
26日00-03時:250度から5ノットの風

但し、24日22時-25日02時の間:時々

石垣空港
TAF ROIG 241109Z 2412/2518 19005KT 9999 FEW015 SCT025
BECMG 2506/2509 10005KT
BECMG 2515/2518 14005KT
日本時間24日21時-25日15時:190度から5ノットの風
15-18時:風が変化
18-24時:100度から5ノットの風
26日00-03時:風が変化
03時:140度から5ノットの風


マウイのカフルイ空港
PHOG 241122Z 2412/2512 03006KT P6SM FEW030 SCT050
FM242000 04015KT P6SM FEW030 SCT050
FM250500 04008KT P6SM FEW030 SCT050 AMD LTD TO VIS AND WIND TIL 241600
ハワイ時間24日02-10時:030度から6ノットの風
10-19時:040度から15ノットの風
19時-25日02時:040度から8ノットの風


サイパン空港
TAF PGSN 241120Z 2412/2512 10006KT P6SM VCSH SCT020 BKN110
マリアナ時間24日22時-25日22時:100度から6ノットの風
コメント